EST,Max TemperatureF,Mean TemperatureF,Min TemperatureF,Max Dew PointF,MeanDew PointF,Min DewpointF,Max Humidity, Mean Humidity, Min Humidity, Max Sea Level PressureIn, Mean Sea Level PressureIn, Min Sea Level PressureIn, Max VisibilityMiles, Mean VisibilityMiles, Min VisibilityMiles, Max Wind SpeedMPH, Mean Wind SpeedMPH, Max Gust SpeedMPH,PrecipitationIn, CloudCover, Events, WindDirDegrees
2012-11-1,42,38,33,30,26,12,87,66,31,29.83,29.77,29.70,10,10,10,31,13,46,0.00,6,,305
2012-11-2,50,46,41,30,23,12,57,43,30,29.97,29.86,29.81,10,10,10,25,16,45,0.00,3,,311
2012-11-3,57,46,35,27,18,3,65,39,12,30.08,30.03,29.97,10,10,10,21,7,29,0.00,2,,294
2012-11-4,51,44,37,39,34,27,93,67,46,30.05,30.00,29.97,10,10,5,12,3,18,0.01,7,Rain,316
2012-11-5,48,40,32,30,25,21,81,60,34,30.05,30.01,29.99,10,10,7,18,7,26,0.00,0,,332
2012-11-6,33,30,26,30,27,23,100,82,65,30.05,29.99,29.89,10,9,0,6,1,,0.00,3,Fog-Rain-Snow,190
2012-11-7,44,35,26,36,30,25,100,80,49,29.93,29.86,29.80,10,7,0,17,3,25,0.00,6,Fog,333
2012-11-8,46,40,33,30,24,14,75,54,27,30.13,30.05,29.94,10,10,10,18,12,30,0.00,0,,314
2012-11-9,59,48,37,23,19,12,52,34,20,30.26,30.21,30.12,10,10,10,16,9,21,0.00,0,,281
2012-11-10,66,50,35,32,20,10,53,31,18,30.38,30.33,30.26,10,10,10,7,2,,0.00,0,,183
2012-11-11,62,53,44,45,33,23,72,50,23,30.45,30.40,30.36,10,10,10,10,2,21,0.00,2,,160
2012-11-12,57,50,42,54,49,37,94,87,77,30.38,30.27,30.19,10,9,2,18,8,25,0.09,8,Rain,175
2012-11-13,44,38,32,37,25,18,87,64,39,30.38,30.29,30.23,10,10,10,14,8,22,0.02,2,Rain,345
2012-11-14,41,36,30,27,25,21,86,68,45,30.40,30.34,30.29,10,10,10,5,1,,0.00,1,,152
2012-11-15,46,37,28,30,26,23,87,71,46,30.29,30.24,30.19,10,10,10,10,1,,0.00,0,,319
2012-11-16,51,40,28,28,20,10,93,50,19,30.37,30.28,30.23,10,10,10,7,2,,0.00,0,,28
2012-11-17,51,42,33,25,20,14,65,45,22,30.46,30.42,30.37,10,10,10,9,2,,0.00,0,,69
2012-11-18,46,39,32,34,29,14,81,69,41,30.47,30.43,30.38,10,10,10,7,3,,0.00,4,,24
2012-11-19,53,45,37,43,38,30,100,85,62,30.39,30.29,30.19,10,7,0,6,2,,0.00,4,Fog,21
2012-11-20,55,44,33,37,31,23,100,60,30,30.19,30.12,30.06,10,8,0,9,2,,0.00,3,Fog,330
2012-11-21,55,48,41,28,26,23,57,43,29,30.20,30.14,30.09,10,10,10,10,4,,0.00,0,,347
2012-11-22,59,46,33,32,25,19,81,48,23,30.25,30.20,30.17,10,10,10,6,1,,0.00,0,,124
2012-11-23,59,47,35,41,32,25,87,59,42,30.16,30.04,29.94,10,10,5,20,8,31,0.00,3,,283
2012-11-24,35,30,23,23,17,12,74,59,44,30.03,29.97,29.92,10,10,10,23,14,38,0.00,2,,319
2012-11-25,46,34,23,16,1,-13,74,27,10,30.04,30.00,29.96,10,10,10,20,9,28,0.00,0,,285
2012-11-26,53,45,37,27,17,3,46,31,19,30.17,30.11,30.00,10,10,10,32,12,41,0.00,4,,300
2012-11-27,48,42,35,41,35,23,87,82,37,30.19,30.13,30.09,10,10,4,10,3,,0.00,8,Rain,323
2012-11-28,42,37,32,28,21,10,81,59,29,30.32,30.24,30.16,10,10,10,18,9,25,0.00,1,,313
2012-11-29,48,37,26,27,22,18,80,58,34,30.38,30.33,30.30,10,10,10,7,2,,0.00,0,,184
2012-11-30,55,42,30,30,26,14,81,59,21,30.34,30.29,30.25,10,10,10,8,2,,0.00,0,,172